OAS7250 SKBO-SKCL
Flight info
| Callsign | OAS7250 |
|---|---|
| Flight time | 0h 46m |
| Altitude | 18000 |
| Route | VAPOM4R OREGA OREGA5A |
| Aircraft | AT76/M-SDFGIRY/S |
Departure
| Time | 2026-04-21 01:57 |
|---|---|
| Airport | El Dorado International Airport (SKBO) |
Arrival
| Time | 2026-04-21 02:43 |
|---|---|
| Airport | Alfonso Bonilla Aragon International Airport (SKCL) |
| Time | Latitude | Longitude | Altitude | Speed | Heading |
|---|---|---|---|---|---|
| 2026-04-21 01:17 | 4.69392 | -74.13310 | 8362 ft | 0 kts | 126° |
| 2026-04-21 01:29 | 4.69393 | -74.13311 | 8362 ft | 1 kts | 126° |
| 2026-04-21 01:29 | 4.69403 | -74.13323 | 8362 ft | 3 kts | 137° |
| 2026-04-21 01:29 | 4.69419 | -74.13334 | 8362 ft | 3 kts | 161° |
| 2026-04-21 01:29 | 4.69439 | -74.13337 | 8362 ft | 3 kts | 192° |
| 2026-04-21 01:30 | 4.69455 | -74.13330 | 8362 ft | 2 kts | 217° |
| 2026-04-21 01:30 | 4.69471 | -74.13318 | 8363 ft | 3 kts | 217° |
| 2026-04-21 01:30 | 4.69488 | -74.13306 | 8362 ft | 3 kts | 217° |
| 2026-04-21 01:30 | 4.69504 | -74.13294 | 8362 ft | 3 kts | 217° |
| 2026-04-21 01:31 | 4.69515 | -74.13286 | 8362 ft | 1 kts | 217° |
| 2026-04-21 01:31 | 4.69527 | -74.13275 | 8362 ft | 3 kts | 245° |
| 2026-04-21 01:31 | 4.69529 | -74.13257 | 8362 ft | 3 kts | 296° |
| 2026-04-21 01:31 | 4.69518 | -74.13241 | 8362 ft | 3 kts | 310° |
| 2026-04-21 01:32 | 4.69509 | -74.13230 | 8362 ft | 1 kts | 307° |
| 2026-04-21 01:32 | 4.69500 | -74.13218 | 8362 ft | 1 kts | 307° |
| 2026-04-21 01:32 | 4.69498 | -74.13216 | 8362 ft | 0 kts | 307° |
| 2026-04-21 01:37 | 4.69499 | -74.13217 | 8362 ft | 0 kts | 307° |
| 2026-04-21 01:37 | 4.69503 | -74.13223 | 8362 ft | 2 kts | 307° |
| 2026-04-21 01:37 | 4.69516 | -74.13239 | 8362 ft | 4 kts | 307° |
| 2026-04-21 01:37 | 4.69534 | -74.13263 | 8362 ft | 4 kts | 307° |
| 2026-04-21 01:38 | 4.69558 | -74.13295 | 8362 ft | 8 kts | 307° |
| 2026-04-21 01:38 | 4.69601 | -74.13353 | 8362 ft | 11 kts | 306° |
| 2026-04-21 01:38 | 4.69646 | -74.13412 | 8362 ft | 11 kts | 308° |
| 2026-04-21 01:38 | 4.69691 | -74.13471 | 8363 ft | 10 kts | 307° |
| 2026-04-21 01:39 | 4.69734 | -74.13527 | 8362 ft | 10 kts | 307° |
| 2026-04-21 01:39 | 4.69776 | -74.13583 | 8362 ft | 11 kts | 308° |
| 2026-04-21 01:39 | 4.69822 | -74.13644 | 8362 ft | 11 kts | 307° |
| 2026-04-21 01:39 | 4.69872 | -74.13709 | 8362 ft | 12 kts | 307° |
| 2026-04-21 01:40 | 4.69923 | -74.13777 | 8362 ft | 12 kts | 307° |
| 2026-04-21 01:40 | 4.69977 | -74.13848 | 8362 ft | 16 kts | 307° |
| 2026-04-21 01:40 | 4.70055 | -74.13952 | 8362 ft | 20 kts | 307° |
| 2026-04-21 01:40 | 4.70133 | -74.14056 | 8362 ft | 18 kts | 307° |
| 2026-04-21 01:41 | 4.70204 | -74.14150 | 8362 ft | 16 kts | 307° |
| 2026-04-21 01:41 | 4.70278 | -74.14247 | 8362 ft | 18 kts | 307° |
| 2026-04-21 01:41 | 4.70353 | -74.14346 | 8363 ft | 16 kts | 307° |
| 2026-04-21 01:41 | 4.70423 | -74.14438 | 8363 ft | 16 kts | 308° |
| 2026-04-21 01:42 | 4.70510 | -74.14458 | 8363 ft | 13 kts | 0° |
| 2026-04-21 01:42 | 4.70568 | -74.14514 | 8363 ft | 11 kts | 307° |
| 2026-04-21 01:42 | 4.70601 | -74.14558 | 8363 ft | 1 kts | 307° |
| 2026-04-21 01:42 | 4.70603 | -74.14561 | 8363 ft | 0 kts | 307° |
| 2026-04-21 01:44 | 4.70607 | -74.14566 | 8363 ft | 3 kts | 307° |
| 2026-04-21 01:44 | 4.70627 | -74.14592 | 8363 ft | 6 kts | 307° |
| 2026-04-21 01:45 | 4.70654 | -74.14628 | 8363 ft | 13 kts | 307° |
| 2026-04-21 01:45 | 4.70719 | -74.14714 | 8363 ft | 13 kts | 307° |
| 2026-04-21 01:45 | 4.70768 | -74.14779 | 8363 ft | 11 kts | 307° |
| 2026-04-21 01:45 | 4.70810 | -74.14835 | 8363 ft | 10 kts | 307° |
| 2026-04-21 01:46 | 4.70863 | -74.14905 | 8363 ft | 7 kts | 307° |
| 2026-04-21 01:46 | 4.70877 | -74.14924 | 8363 ft | 1 kts | 307° |
| 2026-04-21 01:46 | 4.70910 | -74.14968 | 8363 ft | 9 kts | 307° |
| 2026-04-21 01:46 | 4.70958 | -74.15031 | 8362 ft | 16 kts | 307° |
| 2026-04-21 01:47 | 4.71022 | -74.15117 | 8363 ft | 19 kts | 305° |
| 2026-04-21 01:47 | 4.71100 | -74.15219 | 8363 ft | 16 kts | 307° |
| 2026-04-21 01:47 | 4.71164 | -74.15305 | 8363 ft | 21 kts | 306° |
| 2026-04-21 01:47 | 4.71215 | -74.15390 | 8363 ft | 6 kts | 265° |
| 2026-04-21 01:48 | 4.71155 | -74.15439 | 8363 ft | 23 kts | 216° |
| 2026-04-21 01:48 | 4.71043 | -74.15524 | 8363 ft | 18 kts | 214° |
| 2026-04-21 01:48 | 4.70940 | -74.15598 | 8363 ft | 20 kts | 217° |
| 2026-04-21 01:48 | 4.70829 | -74.15680 | 8364 ft | 23 kts | 216° |
| 2026-04-21 01:49 | 4.70714 | -74.15767 | 8362 ft | 19 kts | 216° |
| 2026-04-21 01:49 | 4.70587 | -74.15836 | 8362 ft | 19 kts | 211° |
| 2026-04-21 01:49 | 4.70541 | -74.15872 | 8362 ft | 1 kts | 233° |
| 2026-04-21 01:49 | 4.70575 | -74.15928 | 8362 ft | 13 kts | 308° |
| 2026-04-21 01:50 | 4.70653 | -74.16030 | 8362 ft | 18 kts | 307° |
| 2026-04-21 01:50 | 4.70732 | -74.16134 | 8362 ft | 21 kts | 307° |
| 2026-04-21 01:50 | 4.70812 | -74.16241 | 8362 ft | 22 kts | 307° |
| 2026-04-21 01:50 | 4.70894 | -74.16351 | 8363 ft | 17 kts | 307° |
| 2026-04-21 01:51 | 4.70974 | -74.16455 | 8362 ft | 24 kts | 307° |
| 2026-04-21 01:51 | 4.71064 | -74.16573 | 8362 ft | 22 kts | 307° |
| 2026-04-21 01:51 | 4.71152 | -74.16689 | 8362 ft | 20 kts | 307° |
| 2026-04-21 01:51 | 4.71200 | -74.16789 | 8362 ft | 9 kts | 248° |
| 2026-04-21 01:52 | 4.71153 | -74.16830 | 8361 ft | 8 kts | 217° |
| 2026-04-21 01:52 | 4.71118 | -74.16857 | 8360 ft | 8 kts | 217° |
| 2026-04-21 01:52 | 4.71067 | -74.16895 | 8359 ft | 10 kts | 216° |
| 2026-04-21 01:53 | 4.71020 | -74.16878 | 8360 ft | 6 kts | 124° |
| 2026-04-21 01:53 | 4.71016 | -74.16872 | 8360 ft | 0 kts | 126° |
| 2026-04-21 01:55 | 4.70988 | -74.16834 | 8360 ft | 27 kts | 127° |
| 2026-04-21 01:56 | 4.70754 | -74.16524 | 8361 ft | 83 kts | 127° |
| 2026-04-21 01:56 | 4.70310 | -74.15937 | 8361 ft | 126 kts | 127° |
| 2026-04-21 01:56 | 4.69737 | -74.15160 | 8466 ft | 146 kts | 127° |
| 2026-04-21 01:56 | 4.69113 | -74.14333 | 8786 ft | 152 kts | 127° |
| 2026-04-21 01:57 | 4.68485 | -74.13454 | 9127 ft | 160 kts | 126° |
| 2026-04-21 01:57 | 4.67604 | -74.12687 | 9105 ft | 180 kts | 153° |
| 2026-04-21 01:57 | 4.66366 | -74.12344 | 9217 ft | 189 kts | 177° |
| 2026-04-21 01:57 | 4.65064 | -74.12536 | 9459 ft | 191 kts | 201° |
| 2026-04-21 01:58 | 4.64060 | -74.13350 | 9660 ft | 190 kts | 243° |
| 2026-04-21 01:58 | 4.63907 | -74.14616 | 9895 ft | 188 kts | 284° |
| 2026-04-21 01:58 | 4.64064 | -74.15906 | 10069 ft | 189 kts | 260° |
| 2026-04-21 01:58 | 4.63700 | -74.17179 | 10241 ft | 192 kts | 252° |
| 2026-04-21 01:59 | 4.63257 | -74.18426 | 10544 ft | 187 kts | 251° |
| 2026-04-21 01:59 | 4.62824 | -74.19629 | 10884 ft | 181 kts | 251° |
| 2026-04-21 01:59 | 4.62404 | -74.20810 | 11172 ft | 179 kts | 252° |
| 2026-04-21 01:59 | 4.62002 | -74.22002 | 11403 ft | 181 kts | 253° |
| 2026-04-21 02:00 | 4.61607 | -74.23203 | 11632 ft | 183 kts | 253° |
| 2026-04-21 02:00 | 4.61214 | -74.24417 | 11872 ft | 183 kts | 254° |
| 2026-04-21 02:00 | 4.60827 | -74.25632 | 12114 ft | 183 kts | 254° |
| 2026-04-21 02:00 | 4.60442 | -74.26850 | 12348 ft | 184 kts | 254° |
| 2026-04-21 02:01 | 4.60011 | -74.28081 | 12619 ft | 189 kts | 247° |
| 2026-04-21 02:01 | 4.59428 | -74.29243 | 13067 ft | 186 kts | 243° |
| 2026-04-21 02:01 | 4.58805 | -74.30379 | 13429 ft | 187 kts | 243° |
| 2026-04-21 02:01 | 4.58177 | -74.31519 | 13761 ft | 187 kts | 243° |
| 2026-04-21 02:02 | 4.57557 | -74.32666 | 14126 ft | 188 kts | 244° |
| 2026-04-21 02:02 | 4.56939 | -74.33851 | 14389 ft | 195 kts | 244° |
| 2026-04-21 02:02 | 4.56315 | -74.35061 | 14695 ft | 195 kts | 244° |
| 2026-04-21 02:02 | 4.55693 | -74.36270 | 15008 ft | 195 kts | 244° |
| 2026-04-21 02:03 | 4.55070 | -74.37483 | 15296 ft | 197 kts | 244° |
| 2026-04-21 02:03 | 4.54446 | -74.38702 | 15600 ft | 196 kts | 244° |
| 2026-04-21 02:03 | 4.53822 | -74.39916 | 15882 ft | 196 kts | 244° |
| 2026-04-21 02:03 | 4.53201 | -74.41131 | 16156 ft | 196 kts | 244° |
| 2026-04-21 02:04 | 4.52569 | -74.42373 | 16307 ft | 204 kts | 244° |
| 2026-04-21 02:04 | 4.51925 | -74.43639 | 16567 ft | 204 kts | 244° |
| 2026-04-21 02:04 | 4.51276 | -74.44912 | 16815 ft | 205 kts | 244° |
| 2026-04-21 02:04 | 4.50638 | -74.46193 | 17038 ft | 206 kts | 245° |
| 2026-04-21 02:05 | 4.50002 | -74.47479 | 17279 ft | 206 kts | 244° |
| 2026-04-21 02:05 | 4.49354 | -74.48759 | 17535 ft | 206 kts | 244° |
| 2026-04-21 02:05 | 4.48707 | -74.50030 | 17734 ft | 209 kts | 244° |
| 2026-04-21 02:05 | 4.48032 | -74.51347 | 17814 ft | 216 kts | 244° |
| 2026-04-21 02:06 | 4.47338 | -74.52702 | 17840 ft | 222 kts | 244° |
| 2026-04-21 02:06 | 4.46625 | -74.54094 | 17854 ft | 228 kts | 244° |
| 2026-04-21 02:06 | 4.45892 | -74.55526 | 17851 ft | 233 kts | 244° |
| 2026-04-21 02:06 | 4.45144 | -74.56990 | 17853 ft | 238 kts | 243° |
| 2026-04-21 02:07 | 4.44382 | -74.58476 | 17848 ft | 242 kts | 243° |
| 2026-04-21 02:07 | 4.43610 | -74.59983 | 17849 ft | 245 kts | 243° |
| 2026-04-21 02:07 | 4.42828 | -74.61508 | 17842 ft | 247 kts | 243° |
| 2026-04-21 02:07 | 4.42041 | -74.63046 | 17834 ft | 249 kts | 243° |
| 2026-04-21 02:08 | 4.41248 | -74.64593 | 17833 ft | 249 kts | 243° |
| 2026-04-21 02:08 | 4.40454 | -74.66133 | 17820 ft | 251 kts | 243° |
| 2026-04-21 02:08 | 4.39638 | -74.67707 | 17822 ft | 254 kts | 243° |
| 2026-04-21 02:08 | 4.38827 | -74.69269 | 17817 ft | 252 kts | 243° |
| 2026-04-21 02:09 | 4.38023 | -74.70825 | 17812 ft | 252 kts | 243° |
| 2026-04-21 02:09 | 4.37216 | -74.72386 | 17811 ft | 253 kts | 243° |
| 2026-04-21 02:09 | 4.36408 | -74.73951 | 17800 ft | 253 kts | 243° |
| 2026-04-21 02:09 | 4.35602 | -74.75515 | 17803 ft | 253 kts | 243° |
| 2026-04-21 02:10 | 4.34792 | -74.77089 | 17790 ft | 254 kts | 243° |
| 2026-04-21 02:10 | 4.33981 | -74.78662 | 17789 ft | 254 kts | 243° |
| 2026-04-21 02:10 | 4.33169 | -74.80236 | 17780 ft | 254 kts | 243° |
| 2026-04-21 02:10 | 4.32356 | -74.81813 | 17779 ft | 254 kts | 243° |
| 2026-04-21 02:11 | 4.31546 | -74.83385 | 17770 ft | 254 kts | 243° |
| 2026-04-21 02:11 | 4.30733 | -74.84962 | 17758 ft | 255 kts | 243° |
| 2026-04-21 02:11 | 4.29922 | -74.86536 | 17760 ft | 255 kts | 243° |
| 2026-04-21 02:11 | 4.29110 | -74.88112 | 17748 ft | 255 kts | 243° |
| 2026-04-21 02:12 | 4.28297 | -74.89690 | 17750 ft | 255 kts | 243° |
| 2026-04-21 02:12 | 4.27485 | -74.91267 | 17740 ft | 255 kts | 243° |
| 2026-04-21 02:12 | 4.26671 | -74.92846 | 17740 ft | 255 kts | 243° |
| 2026-04-21 02:12 | 4.25860 | -74.94420 | 17734 ft | 255 kts | 243° |
| 2026-04-21 02:13 | 4.25046 | -74.95999 | 17732 ft | 255 kts | 243° |
| 2026-04-21 02:13 | 4.24234 | -74.97575 | 17729 ft | 255 kts | 243° |
| 2026-04-21 02:13 | 4.23432 | -74.99130 | 17733 ft | 255 kts | 243° |
| 2026-04-21 02:13 | 4.22620 | -75.00706 | 17732 ft | 255 kts | 243° |
| 2026-04-21 02:14 | 4.21808 | -75.02280 | 17726 ft | 254 kts | 243° |
| 2026-04-21 02:14 | 4.20995 | -75.03857 | 17724 ft | 254 kts | 243° |
| 2026-04-21 02:14 | 4.20143 | -75.05406 | 17732 ft | 254 kts | 237° |
| 2026-04-21 02:14 | 4.19085 | -75.06818 | 17737 ft | 253 kts | 231° |
| 2026-04-21 02:15 | 4.17972 | -75.08189 | 17741 ft | 253 kts | 231° |
| 2026-04-21 02:15 | 4.16868 | -75.09563 | 17741 ft | 253 kts | 232° |
| 2026-04-21 02:15 | 4.15849 | -75.10896 | 17741 ft | 254 kts | 233° |
| 2026-04-21 02:15 | 4.14790 | -75.12313 | 17742 ft | 254 kts | 233° |
| 2026-04-21 02:16 | 4.13733 | -75.13727 | 17755 ft | 254 kts | 233° |
| 2026-04-21 02:16 | 4.12675 | -75.15141 | 17760 ft | 254 kts | 233° |
| 2026-04-21 02:16 | 4.11614 | -75.16558 | 17764 ft | 254 kts | 233° |
| 2026-04-21 02:16 | 4.10555 | -75.17972 | 17762 ft | 254 kts | 233° |
| 2026-04-21 02:17 | 4.09495 | -75.19389 | 17773 ft | 254 kts | 233° |
| 2026-04-21 02:17 | 4.08434 | -75.20808 | 17782 ft | 254 kts | 233° |
| 2026-04-21 02:17 | 4.07374 | -75.22224 | 17782 ft | 254 kts | 233° |
| 2026-04-21 02:17 | 4.06313 | -75.23640 | 17792 ft | 254 kts | 233° |
| 2026-04-21 02:18 | 4.05253 | -75.25057 | 17784 ft | 254 kts | 233° |
| 2026-04-21 02:18 | 4.04193 | -75.26474 | 17791 ft | 254 kts | 233° |
| 2026-04-21 02:18 | 4.03133 | -75.27888 | 17795 ft | 254 kts | 233° |
| 2026-04-21 02:18 | 4.02075 | -75.29302 | 17792 ft | 254 kts | 233° |
| 2026-04-21 02:19 | 4.01014 | -75.30717 | 17798 ft | 254 kts | 233° |
| 2026-04-21 02:19 | 3.99956 | -75.32130 | 17793 ft | 254 kts | 233° |
| 2026-04-21 02:19 | 3.98900 | -75.33542 | 17800 ft | 254 kts | 233° |
| 2026-04-21 02:19 | 3.97840 | -75.34956 | 17800 ft | 254 kts | 233° |
| 2026-04-21 02:20 | 3.96784 | -75.36367 | 17798 ft | 253 kts | 233° |
| 2026-04-21 02:20 | 3.95726 | -75.37780 | 17801 ft | 253 kts | 233° |
| 2026-04-21 02:20 | 3.94670 | -75.39189 | 17811 ft | 253 kts | 233° |
| 2026-04-21 02:20 | 3.93611 | -75.40602 | 17808 ft | 253 kts | 233° |
| 2026-04-21 02:21 | 3.92556 | -75.42011 | 17806 ft | 253 kts | 233° |
| 2026-04-21 02:21 | 3.91499 | -75.43421 | 17809 ft | 253 kts | 233° |
| 2026-04-21 02:21 | 3.90444 | -75.44831 | 17809 ft | 253 kts | 233° |
| 2026-04-21 02:21 | 3.89392 | -75.46234 | 17808 ft | 253 kts | 233° |
| 2026-04-21 02:22 | 3.88337 | -75.47644 | 17812 ft | 253 kts | 233° |
| 2026-04-21 02:22 | 3.87276 | -75.49055 | 17810 ft | 254 kts | 233° |
| 2026-04-21 02:22 | 3.86287 | -75.50508 | 17822 ft | 252 kts | 243° |
| 2026-04-21 02:22 | 3.85562 | -75.52104 | 17818 ft | 252 kts | 247° |
| 2026-04-21 02:23 | 3.84889 | -75.53726 | 17813 ft | 252 kts | 248° |
| 2026-04-21 02:23 | 3.84200 | -75.55343 | 17828 ft | 252 kts | 246° |
| 2026-04-21 02:23 | 3.83468 | -75.56937 | 17830 ft | 252 kts | 245° |
| 2026-04-21 02:23 | 3.82711 | -75.58525 | 17829 ft | 253 kts | 245° |
| 2026-04-21 02:24 | 3.81968 | -75.60097 | 17825 ft | 253 kts | 245° |
| 2026-04-21 02:24 | 3.81218 | -75.61684 | 17842 ft | 253 kts | 245° |
| 2026-04-21 02:24 | 3.80467 | -75.63277 | 17828 ft | 253 kts | 245° |
| 2026-04-21 02:24 | 3.79715 | -75.64870 | 17842 ft | 253 kts | 245° |
| 2026-04-21 02:25 | 3.78963 | -75.66459 | 17839 ft | 253 kts | 245° |
| 2026-04-21 02:25 | 3.78212 | -75.68052 | 17839 ft | 253 kts | 245° |
| 2026-04-21 02:25 | 3.77461 | -75.69643 | 17835 ft | 253 kts | 245° |
| 2026-04-21 02:25 | 3.76709 | -75.71234 | 17840 ft | 253 kts | 245° |
| 2026-04-21 02:26 | 3.75958 | -75.72825 | 17844 ft | 253 kts | 245° |
| 2026-04-21 02:26 | 3.75205 | -75.74417 | 17838 ft | 252 kts | 245° |
| 2026-04-21 02:26 | 3.74456 | -75.76004 | 17840 ft | 252 kts | 245° |
| 2026-04-21 02:26 | 3.73706 | -75.77594 | 17860 ft | 253 kts | 245° |
| 2026-04-21 02:27 | 3.72954 | -75.79184 | 17846 ft | 253 kts | 245° |
| 2026-04-21 02:27 | 3.72203 | -75.80773 | 17847 ft | 252 kts | 245° |
| 2026-04-21 02:27 | 3.71454 | -75.82361 | 17850 ft | 252 kts | 245° |
| 2026-04-21 02:27 | 3.70702 | -75.83951 | 17856 ft | 253 kts | 245° |
| 2026-04-21 02:28 | 3.69952 | -75.85538 | 17838 ft | 253 kts | 245° |
| 2026-04-21 02:28 | 3.69201 | -75.87129 | 17841 ft | 253 kts | 245° |
| 2026-04-21 02:28 | 3.68452 | -75.88716 | 17836 ft | 252 kts | 245° |
| 2026-04-21 02:28 | 3.67698 | -75.90307 | 17840 ft | 252 kts | 245° |
| 2026-04-21 02:29 | 3.67203 | -75.91357 | 17841 ft | 252 kts | 245° |
| 2026-04-21 02:29 | 3.66494 | -75.92857 | 17841 ft | 252 kts | 245° |
| 2026-04-21 02:29 | 3.65743 | -75.94446 | 17835 ft | 252 kts | 245° |
| 2026-04-21 02:29 | 3.64992 | -75.96035 | 17829 ft | 252 kts | 245° |
| 2026-04-21 02:30 | 3.64242 | -75.97621 | 17811 ft | 253 kts | 245° |
| 2026-04-21 02:30 | 3.63470 | -75.99255 | 17414 ft | 267 kts | 245° |
| 2026-04-21 02:30 | 3.62657 | -76.00974 | 17010 ft | 278 kts | 245° |
| 2026-04-21 02:30 | 3.61816 | -76.02755 | 16594 ft | 287 kts | 245° |
| 2026-04-21 02:31 | 3.60953 | -76.04582 | 16160 ft | 294 kts | 245° |
| 2026-04-21 02:31 | 3.60076 | -76.06451 | 15715 ft | 299 kts | 245° |
| 2026-04-21 02:31 | 3.59176 | -76.08337 | 15273 ft | 302 kts | 245° |
| 2026-04-21 02:31 | 3.58277 | -76.10239 | 14837 ft | 303 kts | 245° |
| 2026-04-21 02:32 | 3.57384 | -76.12131 | 14410 ft | 298 kts | 245° |
| 2026-04-21 02:32 | 3.56798 | -76.13371 | 14128 ft | 296 kts | 245° |
| 2026-04-21 02:32 | 3.55921 | -76.15231 | 13683 ft | 294 kts | 245° |
| 2026-04-21 02:32 | 3.55055 | -76.17072 | 13233 ft | 292 kts | 245° |
| 2026-04-21 02:33 | 3.54186 | -76.18899 | 12774 ft | 290 kts | 245° |
| 2026-04-21 02:33 | 3.53324 | -76.20724 | 12327 ft | 289 kts | 245° |
| 2026-04-21 02:33 | 3.52469 | -76.22536 | 11886 ft | 288 kts | 245° |
| 2026-04-21 02:33 | 3.51616 | -76.24345 | 11460 ft | 287 kts | 245° |
| 2026-04-21 02:34 | 3.50506 | -76.26686 | 10911 ft | 275 kts | 244° |
| 2026-04-21 02:34 | 3.49798 | -76.27742 | 10632 ft | 269 kts | 226° |
| 2026-04-21 02:34 | 3.48262 | -76.28759 | 10248 ft | 264 kts | 206° |
| 2026-04-21 02:34 | 3.46548 | -76.29384 | 9863 ft | 261 kts | 195° |
| 2026-04-21 02:35 | 3.44791 | -76.29769 | 9457 ft | 258 kts | 191° |
| 2026-04-21 02:35 | 3.43032 | -76.30093 | 9047 ft | 256 kts | 190° |
| 2026-04-21 02:35 | 3.41288 | -76.30419 | 8651 ft | 254 kts | 191° |
| 2026-04-21 02:35 | 3.39566 | -76.30780 | 8260 ft | 251 kts | 192° |
| 2026-04-21 02:36 | 3.37879 | -76.31156 | 7885 ft | 246 kts | 192° |
| 2026-04-21 02:36 | 3.36221 | -76.31520 | 7512 ft | 242 kts | 192° |
| 2026-04-21 02:36 | 3.34606 | -76.31877 | 7156 ft | 239 kts | 192° |
| 2026-04-21 02:36 | 3.32982 | -76.32261 | 6839 ft | 231 kts | 198° |
| 2026-04-21 02:37 | 3.31753 | -76.33185 | 6615 ft | 225 kts | 236° |
| 2026-04-21 02:37 | 3.31347 | -76.34662 | 6418 ft | 219 kts | 274° |
| 2026-04-21 02:37 | 3.31918 | -76.36018 | 6225 ft | 213 kts | 313° |
| 2026-04-21 02:37 | 3.33160 | -76.36693 | 6046 ft | 207 kts | 352° |
| 2026-04-21 02:38 | 3.34561 | -76.36799 | 5879 ft | 199 kts | 351° |
| 2026-04-21 02:38 | 3.35861 | -76.37107 | 5795 ft | 185 kts | 344° |
| 2026-04-21 02:38 | 3.37055 | -76.37475 | 5746 ft | 175 kts | 342° |
| 2026-04-21 02:38 | 3.38170 | -76.37833 | 5716 ft | 160 kts | 342° |
| 2026-04-21 02:39 | 3.39177 | -76.38160 | 5682 ft | 147 kts | 342° |
| 2026-04-21 02:39 | 3.40149 | -76.38465 | 5490 ft | 147 kts | 343° |
| 2026-04-21 02:39 | 3.41124 | -76.38763 | 5286 ft | 144 kts | 343° |
| 2026-04-21 02:39 | 3.42042 | -76.39038 | 5095 ft | 134 kts | 343° |
| 2026-04-21 02:40 | 3.42919 | -76.39301 | 4908 ft | 129 kts | 343° |
| 2026-04-21 02:40 | 3.43770 | -76.39557 | 4725 ft | 126 kts | 343° |
| 2026-04-21 02:40 | 3.44594 | -76.39803 | 4582 ft | 120 kts | 343° |
| 2026-04-21 02:40 | 3.45406 | -76.39852 | 4450 ft | 119 kts | 14° |
| 2026-04-21 02:41 | 3.46202 | -76.39647 | 4317 ft | 120 kts | 12° |
| 2026-04-21 02:41 | 3.47028 | -76.39464 | 4197 ft | 121 kts | 11° |
| 2026-04-21 02:41 | 3.47853 | -76.39297 | 4062 ft | 121 kts | 9° |
| 2026-04-21 02:41 | 3.48679 | -76.39146 | 3930 ft | 120 kts | 8° |
| 2026-04-21 02:42 | 3.49491 | -76.39011 | 3829 ft | 118 kts | 8° |
| 2026-04-21 02:42 | 3.50309 | -76.38885 | 3739 ft | 120 kts | 8° |
| 2026-04-21 02:42 | 3.51141 | -76.38728 | 3545 ft | 123 kts | 10° |
| 2026-04-21 02:42 | 3.51979 | -76.38574 | 3377 ft | 121 kts | 10° |
| 2026-04-21 02:43 | 3.52793 | -76.38433 | 3244 ft | 117 kts | 11° |
| 2026-04-21 02:43 | 3.53576 | -76.38296 | 3160 ft | 108 kts | 10° |
| 2026-04-21 02:43 | 3.54070 | -76.38211 | 3162 ft | 51 kts | 9° |
| 2026-04-21 02:43 | 3.54387 | -76.38157 | 3161 ft | 41 kts | 9° |
| 2026-04-21 02:44 | 3.54574 | -76.38136 | 3162 ft | 14 kts | 333° |
| 2026-04-21 02:44 | 3.54605 | -76.38218 | 3162 ft | 13 kts | 280° |
| 2026-04-21 02:44 | 3.54571 | -76.38289 | 3162 ft | 13 kts | 194° |
| 2026-04-21 02:44 | 3.54475 | -76.38305 | 3162 ft | 15 kts | 190° |
| 2026-04-21 02:45 | 3.54372 | -76.38323 | 3162 ft | 15 kts | 189° |
| 2026-04-21 02:45 | 3.54264 | -76.38341 | 3161 ft | 16 kts | 190° |
| 2026-04-21 02:45 | 3.54151 | -76.38361 | 3161 ft | 17 kts | 189° |
| 2026-04-21 02:45 | 3.54059 | -76.38402 | 3160 ft | 13 kts | 220° |
| 2026-04-21 02:46 | 3.53985 | -76.38465 | 3160 ft | 16 kts | 219° |
| 2026-04-21 02:46 | 3.53903 | -76.38532 | 3159 ft | 14 kts | 220° |
| 2026-04-21 02:46 | 3.53838 | -76.38596 | 3159 ft | 12 kts | 241° |
| 2026-04-21 02:46 | 3.53804 | -76.38661 | 3159 ft | 10 kts | 214° |